Kwajalein/Bucholz, Marshall Islands
Current Conditions -  °F | °C
As of 3:20 PM on Saturday 22 Nov 2014 (Local Time) from PKWA Reporting Station
Clear Clear  
Wind Chill: 88°   Ceiling: Unl
Heat Index: 96°   Visibility: 10mi
Dew Point: 73°   Wind: 16mph
Humidity: 61%   Direction: 60°ENE
Pressure: 29.76"   Gusts: 23mph
Location:  8.73°N, 167.73°E
Report Text: PKWA 220320Z AUTO 06014G20KT 10SM CLR 31/23 A2976 RMK AO2 T03110229
Loading
Personal Weather Stations






























Interactive Weather Map New forecast layout! Learn more

10-Day Weather Forecast

Advertisements
Track Severe Weather on mobile